createdAt,value
2023-12-08T00:01:45.134Z,-9.43
2023-12-08T00:04:30.612Z,-9.43
2023-12-08T00:07:16.042Z,-9.51
2023-12-08T00:10:01.503Z,-9.61
2023-12-08T00:12:47.152Z,-9.66
2023-12-08T00:15:32.648Z,-9.68
2023-12-08T00:18:18.385Z,-9.72
2023-12-08T00:21:04.156Z,-9.74
2023-12-08T00:23:50.388Z,-9.82
2023-12-08T00:26:36.068Z,-9.90
2023-12-08T00:29:21.605Z,-9.94
2023-12-08T00:32:07.218Z,-9.94
2023-12-08T00:34:52.849Z,-9.97
2023-12-08T00:37:38.330Z,-10.01
2023-12-08T00:40:23.948Z,-9.98
2023-12-08T00:43:09.485Z,-9.95
2023-12-08T00:45:55.042Z,-9.95
2023-12-08T00:48:40.388Z,-9.96
2023-12-08T00:51:26.534Z,-9.99
2023-12-08T00:54:12.501Z,-10.03
2023-12-08T00:56:58.051Z,-10.07
2023-12-08T00:59:43.709Z,-10.09
2023-12-08T01:02:29.145Z,-10.11
2023-12-08T01:05:14.704Z,-10.20
2023-12-08T01:08:00.580Z,-10.32
2023-12-08T01:10:46.283Z,-10.34
2023-12-08T01:13:31.803Z,-10.29
2023-12-08T01:16:17.327Z,-10.29
2023-12-08T01:19:02.969Z,-10.29
2023-12-08T01:21:49.075Z,-10.31
2023-12-08T01:24:36.657Z,-10.37
2023-12-08T01:27:23.358Z,-10.40
2023-12-08T01:30:09.934Z,-10.44
2023-12-08T01:32:57.238Z,-10.43
2023-12-08T01:35:43.267Z,-10.45
2023-12-08T01:38:29.813Z,-10.49
2023-12-08T01:41:16.729Z,-10.48
2023-12-08T01:44:02.359Z,-10.46
2023-12-08T01:46:48.142Z,-10.48
2023-12-08T01:49:35.392Z,-10.45
2023-12-08T01:52:24.671Z,-10.51
2023-12-08T01:55:11.369Z,-10.58
2023-12-08T01:57:56.861Z,-10.66
2023-12-08T02:00:46.713Z,-10.72
2023-12-08T02:03:36.698Z,-10.72
2023-12-08T02:06:22.438Z,-10.72
2023-12-08T02:09:09.276Z,-10.72
2023-12-08T02:11:58.237Z,-10.69
2023-12-08T02:14:46.290Z,-10.68
2023-12-08T02:17:36.552Z,-10.67
2023-12-08T02:20:22.496Z,-10.63
2023-12-08T02:23:08.449Z,-10.63
2023-12-08T02:25:54.203Z,-10.65
2023-12-08T02:28:39.658Z,-10.70
2023-12-08T02:31:42.200Z,-10.72
2023-12-08T02:34:29.721Z,-10.73
2023-12-08T02:37:16.348Z,-10.73
2023-12-08T02:40:03.824Z,-10.71
2023-12-08T02:42:49.817Z,-10.71
2023-12-08T02:45:35.335Z,-10.70
2023-12-08T02:48:21.093Z,-10.73
2023-12-08T02:51:07.763Z,-10.76
2023-12-08T02:53:54.051Z,-10.85
2023-12-08T02:56:39.442Z,-10.93
2023-12-08T02:59:24.930Z,-10.95
2023-12-08T03:02:10.424Z,-10.96
2023-12-08T03:04:56.073Z,-10.93
2023-12-08T03:07:41.470Z,-10.89
2023-12-08T03:10:27.208Z,-10.88
2023-12-08T03:13:12.705Z,-11.03
2023-12-08T03:15:58.361Z,-11.15
2023-12-08T03:18:43.972Z,-11.24
2023-12-08T03:21:29.848Z,-11.29
2023-12-08T03:24:15.446Z,-11.30
2023-12-08T03:27:01.201Z,-11.29
2023-12-08T03:29:47.420Z,-11.26
2023-12-08T03:32:33.733Z,-11.24
2023-12-08T03:35:21.683Z,-11.21
2023-12-08T03:38:07.448Z,-11.18
2023-12-08T03:40:53.083Z,-11.14
2023-12-08T03:43:38.818Z,-11.10
2023-12-08T03:46:24.546Z,-11.05
2023-12-08T03:49:10.588Z,-11.04
2023-12-08T03:51:58.913Z,-11.00
2023-12-08T03:54:44.678Z,-10.94
2023-12-08T03:57:29.984Z,-10.90
2023-12-08T04:00:16.195Z,-10.85
2023-12-08T04:03:02.101Z,-10.82
2023-12-08T04:05:47.879Z,-10.78
2023-12-08T04:08:33.255Z,-10.77
2023-12-08T04:11:18.694Z,-10.81
2023-12-08T04:14:04.054Z,-10.77
2023-12-08T04:16:52.114Z,-10.74
2023-12-08T04:19:38.446Z,-10.77
2023-12-08T04:22:24.183Z,-10.77
2023-12-08T04:25:09.719Z,-10.75
2023-12-08T04:27:55.367Z,-10.72
2023-12-08T04:30:40.839Z,-10.67
2023-12-08T04:33:26.505Z,-10.62
2023-12-08T04:36:11.809Z,-10.57
2023-12-08T04:38:57.370Z,-10.53
2023-12-08T04:41:45.029Z,-10.49
2023-12-08T04:44:31.683Z,-10.49
2023-12-08T04:47:17.131Z,-10.49
2023-12-08T04:50:03.450Z,-10.48
2023-12-08T04:52:48.882Z,-10.45
2023-12-08T04:55:36.376Z,-10.45
2023-12-08T04:58:22.334Z,-10.46
2023-12-08T05:01:13.285Z,-10.45
2023-12-08T05:03:59.184Z,-10.44
2023-12-08T05:06:45.217Z,-10.43
2023-12-08T05:09:31.367Z,-10.50
2023-12-08T05:12:16.968Z,-10.57
2023-12-08T05:15:02.469Z,-10.59
2023-12-08T05:17:48.140Z,-10.55
2023-12-08T05:20:34.434Z,-10.55
2023-12-08T05:23:20.190Z,-10.55
2023-12-08T05:26:06.594Z,-10.58
2023-12-08T05:28:52.499Z,-10.60
2023-12-08T05:31:38.394Z,-10.58
2023-12-08T05:34:24.182Z,-10.56
2023-12-08T05:37:11.824Z,-10.53
2023-12-08T05:39:57.376Z,-10.47
2023-12-08T05:42:43.296Z,-10.43
2023-12-08T05:45:28.770Z,-10.39
2023-12-08T05:48:14.621Z,-10.34
2023-12-08T05:51:00.473Z,-10.26
2023-12-08T05:53:46.219Z,-10.21
2023-12-08T05:56:32.625Z,-10.18
2023-12-08T05:59:18.187Z,-10.18
2023-12-08T06:02:04.013Z,-10.14
2023-12-08T06:04:49.749Z,-10.10
2023-12-08T06:07:36.116Z,-10.05
2023-12-08T06:10:24.387Z,-10.00
2023-12-08T06:13:10.027Z,-9.96
2023-12-08T06:15:55.674Z,-9.93
2023-12-08T06:18:41.689Z,-9.93
2023-12-08T06:21:27.997Z,-9.93
2023-12-08T06:24:14.058Z,-9.91
2023-12-08T06:26:59.956Z,-9.92
2023-12-08T06:29:45.784Z,-9.92
2023-12-08T06:32:34.880Z,-9.92
2023-12-08T06:35:20.739Z,-9.87
2023-12-08T06:38:06.084Z,-9.87
2023-12-08T06:40:52.202Z,-9.88
2023-12-08T06:43:37.636Z,-9.87
2023-12-08T06:46:23.097Z,-9.82
2023-12-08T06:49:08.836Z,-9.77
2023-12-08T06:51:54.581Z,-9.69
2023-12-08T06:54:40.090Z,-9.63
2023-12-08T06:57:26.635Z,-9.58
2023-12-08T07:00:13.339Z,-9.57
2023-12-08T07:02:58.920Z,-9.52
2023-12-08T07:05:46.163Z,-9.45
2023-12-08T07:08:32.729Z,-9.39
2023-12-08T07:11:18.541Z,-9.29
2023-12-08T07:14:04.042Z,-9.23
2023-12-08T07:16:49.559Z,-9.15
2023-12-08T07:19:35.438Z,-9.11
2023-12-08T07:22:21.024Z,-9.06
2023-12-08T07:25:08.421Z,-9.00
2023-12-08T07:27:53.842Z,-8.97
2023-12-08T07:30:39.428Z,-8.90
2023-12-08T07:33:25.351Z,-8.80
2023-12-08T07:36:10.955Z,-8.71
2023-12-08T07:38:57.255Z,-8.61
2023-12-08T07:41:46.437Z,-8.48
2023-12-08T07:44:32.212Z,-8.39
2023-12-08T07:47:19.909Z,-8.30
2023-12-08T07:50:07.004Z,-8.20
2023-12-08T07:52:53.329Z,-8.13
2023-12-08T07:55:39.365Z,-8.03
2023-12-08T07:58:24.934Z,-7.92
2023-12-08T08:01:10.559Z,-7.84
2023-12-08T08:03:56.434Z,-7.74
2023-12-08T08:06:45.061Z,-7.64
2023-12-08T08:09:30.674Z,-7.53
2023-12-08T08:12:16.572Z,-7.46
2023-12-08T08:15:02.180Z,-7.40
2023-12-08T08:17:47.522Z,-7.36
2023-12-08T08:20:32.904Z,-7.34
2023-12-08T08:23:18.423Z,-7.28
2023-12-08T08:26:04.449Z,-7.20
2023-12-08T08:28:50.465Z,-7.16
2023-12-08T08:31:35.899Z,-7.14
2023-12-08T08:34:21.658Z,-7.07
2023-12-08T08:37:07.627Z,-6.95
2023-12-08T08:39:53.710Z,-6.80
2023-12-08T08:42:39.486Z,-6.64
2023-12-08T08:45:26.919Z,-6.48
2023-12-08T08:48:12.740Z,-6.32
2023-12-08T08:50:58.511Z,-6.19
2023-12-08T08:53:44.006Z,-6.10
2023-12-08T08:56:29.515Z,-6.13
2023-12-08T08:59:14.912Z,-6.24
2023-12-08T09:02:00.633Z,-6.22
2023-12-08T09:04:46.528Z,-6.11
2023-12-08T09:07:34.281Z,-5.97
2023-12-08T09:10:20.484Z,-5.76
2023-12-08T09:13:06.226Z,-5.58
2023-12-08T09:15:52.752Z,-5.44
2023-12-08T09:18:38.408Z,-5.38
2023-12-08T09:21:23.654Z,-5.48
2023-12-08T09:24:10.405Z,-5.47
2023-12-08T09:26:56.122Z,-5.39
2023-12-08T09:29:41.636Z,-5.36
2023-12-08T09:32:28.699Z,-5.20
2023-12-08T09:35:14.601Z,-5.04
2023-12-08T09:38:00.489Z,-4.98
2023-12-08T09:40:46.855Z,-4.88
2023-12-08T09:43:33.089Z,-4.77
2023-12-08T09:46:19.687Z,-4.68
2023-12-08T09:49:13.339Z,-4.54
2023-12-08T09:51:59.888Z,-4.42
2023-12-08T09:54:45.783Z,-4.31
2023-12-08T09:57:33.438Z,-4.27
2023-12-08T10:00:21.508Z,-4.33
2023-12-08T10:03:08.470Z,-4.24
2023-12-08T10:05:56.647Z,-4.15
2023-12-08T10:08:42.598Z,-4.06
2023-12-08T10:11:28.051Z,-4.01
2023-12-08T10:14:15.427Z,-3.93
2023-12-08T10:17:02.201Z,-3.84
2023-12-08T10:19:48.238Z,-3.77
2023-12-08T10:22:57.956Z,-3.71
2023-12-08T10:25:44.183Z,-3.59
2023-12-08T10:28:29.688Z,-3.51
2023-12-08T10:31:15.262Z,-3.47
2023-12-08T10:34:00.858Z,-3.43
2023-12-08T10:36:46.592Z,-3.42
2023-12-08T10:39:32.196Z,-3.35
2023-12-08T10:42:17.763Z,-3.42
2023-12-08T10:45:07.222Z,-3.48
2023-12-08T10:47:53.844Z,-3.42
2023-12-08T10:50:40.270Z,-3.33
2023-12-08T10:53:26.636Z,-3.21
2023-12-08T10:56:16.902Z,-3.08
2023-12-08T10:59:07.645Z,-2.98
2023-12-08T11:01:55.874Z,-2.88
2023-12-08T11:04:43.805Z,-2.80
2023-12-08T11:07:34.211Z,-2.70
2023-12-08T11:10:19.827Z,-2.61
2023-12-08T11:13:10.136Z,-2.50
2023-12-08T11:16:28.435Z,-2.42
2023-12-08T11:19:15.582Z,-2.32
2023-12-08T11:22:01.273Z,-2.19
2023-12-08T11:24:47.348Z,-2.08
2023-12-08T11:27:44.385Z,-1.97
2023-12-08T11:30:39.987Z,-1.91
2023-12-08T11:33:48.933Z,-1.89
2023-12-08T11:36:34.538Z,-1.83
2023-12-08T11:39:38.420Z,-1.82
2023-12-08T11:42:24.108Z,-1.76
2023-12-08T11:45:14.775Z,-1.68
2023-12-08T11:48:12.391Z,-1.64
2023-12-08T11:51:05.059Z,-1.60
2023-12-08T11:53:57.117Z,-1.54
2023-12-08T11:56:44.753Z,-1.43
2023-12-08T11:59:30.233Z,-1.34
2023-12-08T12:02:15.774Z,-1.30
2023-12-08T12:05:01.969Z,-1.33
2023-12-08T12:07:50.960Z,-1.34
2023-12-08T12:10:38.628Z,-1.34
2023-12-08T12:13:28.655Z,-1.31
2023-12-08T12:16:14.403Z,-1.32
2023-12-08T12:19:00.228Z,-1.28
2023-12-08T12:21:46.220Z,-1.23
2023-12-08T12:24:32.317Z,-1.18
2023-12-08T12:27:18.182Z,-1.17
2023-12-08T12:30:05.076Z,-1.17
2023-12-08T12:32:50.762Z,-1.14
2023-12-08T12:35:37.955Z,-1.11
2023-12-08T12:38:29.032Z,-1.10
2023-12-08T12:41:25.173Z,-1.15
2023-12-08T12:44:10.842Z,-1.17
2023-12-08T12:46:56.271Z,-1.21
2023-12-08T12:49:43.983Z,-1.23
2023-12-08T12:52:31.836Z,-1.32
2023-12-08T12:55:24.923Z,-1.39
2023-12-08T12:58:25.143Z,-1.40
2023-12-08T13:01:12.904Z,-1.37
2023-12-08T13:03:59.691Z,-1.34
2023-12-08T13:06:45.264Z,-1.32
2023-12-08T13:09:30.785Z,-1.30
2023-12-08T13:12:16.172Z,-1.30
2023-12-08T13:15:05.811Z,-1.30
2023-12-08T13:17:52.790Z,-1.27
2023-12-08T13:20:42.108Z,-1.26
2023-12-08T13:23:28.080Z,-1.25
2023-12-08T13:26:13.550Z,-1.27
2023-12-08T13:28:59.063Z,-1.25
2023-12-08T13:31:44.905Z,-1.22
2023-12-08T13:34:30.515Z,-1.21
2023-12-08T13:37:15.925Z,-1.21
2023-12-08T13:40:01.516Z,-1.21
2023-12-08T13:42:47.309Z,-1.21
2023-12-08T13:45:33.686Z,-1.22
2023-12-08T13:48:22.042Z,-1.25
2023-12-08T13:53:59.525Z,-1.33
2023-12-08T13:56:45.243Z,-1.34
2023-12-08T13:59:30.585Z,-1.38
2023-12-08T14:02:16.356Z,-1.49
2023-12-08T14:05:02.154Z,-1.53
2023-12-08T14:07:49.308Z,-1.59
2023-12-08T14:10:34.812Z,-1.62
2023-12-08T14:13:20.275Z,-1.62
2023-12-08T14:16:06.056Z,-1.63
2023-12-08T14:18:51.961Z,-1.65
2023-12-08T14:21:37.855Z,-1.66
2023-12-08T14:24:24.194Z,-1.64
2023-12-08T14:27:09.850Z,-1.64
2023-12-08T14:29:55.129Z,-1.65
2023-12-08T14:32:41.806Z,-1.62
2023-12-08T14:35:31.022Z,-1.62
2023-12-08T14:38:19.485Z,-1.64
2023-12-08T14:41:04.983Z,-1.64
2023-12-08T14:43:50.621Z,-1.65
2023-12-08T14:46:36.268Z,-1.71
2023-12-08T14:49:22.287Z,-1.72
2023-12-08T14:52:08.303Z,-1.72
2023-12-08T14:54:54.152Z,-1.74
2023-12-08T14:57:40.859Z,-1.76
2023-12-08T15:00:26.362Z,-1.77
2023-12-08T15:03:11.844Z,-1.76
2023-12-08T15:06:00.549Z,-1.75
2023-12-08T15:08:46.502Z,-1.73
2023-12-08T15:11:32.315Z,-1.74
2023-12-08T15:14:18.147Z,-1.75
2023-12-08T15:17:03.841Z,-1.78
2023-12-08T15:19:49.716Z,-1.78
2023-12-08T15:22:37.785Z,-1.80
2023-12-08T15:25:25.857Z,-1.80
2023-12-08T15:28:13.041Z,-1.78
2023-12-08T15:30:58.924Z,-1.78
2023-12-08T15:33:44.819Z,-1.78
2023-12-08T15:36:30.894Z,-1.76
2023-12-08T15:39:16.803Z,-1.76
2023-12-08T15:42:02.864Z,-1.78
2023-12-08T15:44:48.723Z,-1.77
2023-12-08T15:47:34.632Z,-1.76
2023-12-08T15:50:20.701Z,-1.74
2023-12-08T15:53:06.280Z,-1.74
2023-12-08T15:55:53.212Z,-1.75
2023-12-08T15:58:42.036Z,-1.75
2023-12-08T16:01:27.658Z,-1.75
2023-12-08T16:04:13.183Z,-1.77
2023-12-08T16:07:00.770Z,-1.76
2023-12-08T16:09:46.615Z,-1.74
2023-12-08T16:12:32.371Z,-1.72
2023-12-08T16:15:18.222Z,-1.71
2023-12-08T16:18:04.126Z,-1.68
2023-12-08T16:20:49.689Z,-1.69
2023-12-08T16:23:35.097Z,-1.68
2023-12-08T16:26:21.299Z,-1.67
2023-12-08T16:29:07.628Z,-1.65
2023-12-08T16:31:53.198Z,-1.63
2023-12-08T16:34:38.612Z,-1.62
2023-12-08T16:37:24.266Z,-1.63
2023-12-08T16:40:13.103Z,-1.60
2023-12-08T16:42:58.552Z,-1.58
2023-12-08T16:45:44.354Z,-1.58
2023-12-08T16:48:30.299Z,-1.58
2023-12-08T16:51:16.392Z,-1.57
2023-12-08T16:54:03.345Z,-1.57
2023-12-08T16:56:49.045Z,-1.55
2023-12-08T16:59:34.935Z,-1.52
2023-12-08T17:02:20.277Z,-1.52
2023-12-08T17:05:08.165Z,-1.53
2023-12-08T17:07:53.767Z,-1.50
2023-12-08T17:10:39.223Z,-1.50
2023-12-08T17:13:24.783Z,-1.48
2023-12-08T17:16:10.384Z,-1.48
2023-12-08T17:18:55.950Z,-1.47
2023-12-08T17:21:41.683Z,-1.47
2023-12-08T17:24:27.816Z,-1.45
2023-12-08T17:27:13.360Z,-1.43
2023-12-08T17:29:58.982Z,-1.41
2023-12-08T17:32:44.762Z,-1.40
2023-12-08T17:35:30.703Z,-1.38
2023-12-08T17:38:17.061Z,-1.37
2023-12-08T17:41:03.301Z,-1.35
2023-12-08T17:43:48.830Z,-1.32
2023-12-08T17:46:34.441Z,-1.31
2023-12-08T17:49:20.162Z,-1.30
2023-12-08T17:52:05.983Z,-1.30
2023-12-08T17:54:53.280Z,-1.28
2023-12-08T17:57:40.694Z,-1.27
2023-12-08T18:00:26.495Z,-1.26
2023-12-08T18:03:12.046Z,-1.25
2023-12-08T18:05:57.911Z,-1.25
2023-12-08T18:08:43.753Z,-1.24
2023-12-08T18:11:29.379Z,-1.22
2023-12-08T18:14:15.086Z,-1.23
2023-12-08T18:17:02.043Z,-1.20
2023-12-08T18:19:47.724Z,-1.21
2023-12-08T18:22:34.920Z,-1.22
2023-12-08T18:25:20.480Z,-1.20
2023-12-08T18:28:26.883Z,-1.21
2023-12-08T18:31:29.065Z,-1.20
2023-12-08T18:34:14.974Z,-1.18
2023-12-08T18:37:00.520Z,-1.17
2023-12-08T18:39:46.237Z,-1.17
2023-12-08T18:42:32.006Z,-1.15
2023-12-08T18:45:17.844Z,-1.14
2023-12-08T18:48:03.613Z,-1.13
2023-12-08T18:50:49.311Z,-1.13
2023-12-08T18:53:36.792Z,-1.14
2023-12-08T18:56:22.402Z,-1.15
2023-12-08T18:59:07.950Z,-1.15
2023-12-08T19:01:53.532Z,-1.15
2023-12-08T19:04:39.105Z,-1.16
2023-12-08T19:07:24.806Z,-1.14
2023-12-08T19:10:10.713Z,-1.14
2023-12-08T19:12:56.695Z,-1.13
2023-12-08T19:15:42.370Z,-1.12
2023-12-08T19:18:28.265Z,-1.11
2023-12-08T19:21:13.971Z,-1.10
2023-12-08T19:23:59.763Z,-1.09
2023-12-08T19:26:45.426Z,-1.09
2023-12-08T19:29:31.613Z,-1.08
2023-12-08T19:32:17.463Z,-1.08
2023-12-08T19:35:03.896Z,-1.07
2023-12-08T19:37:50.023Z,-1.07
2023-12-08T19:40:35.499Z,-1.06
2023-12-08T19:43:20.923Z,-1.05
2023-12-08T19:46:06.934Z,-1.05
2023-12-08T19:48:52.606Z,-1.02
2023-12-08T19:51:38.518Z,-1.02
2023-12-08T19:54:24.225Z,-1.00
2023-12-08T19:57:10.713Z,-0.99
2023-12-08T19:59:57.275Z,-0.98
2023-12-08T20:02:43.011Z,-0.97
2023-12-08T20:05:28.789Z,-0.96
2023-12-08T20:08:14.883Z,-0.97
2023-12-08T20:11:02.168Z,-0.98
2023-12-08T20:13:48.137Z,-0.97
2023-12-08T20:16:36.073Z,-0.94
2023-12-08T20:19:22.560Z,-0.92
2023-12-08T20:22:08.026Z,-0.91
2023-12-08T20:24:53.498Z,-0.89
2023-12-08T20:27:39.348Z,-0.90
2023-12-08T20:30:25.089Z,-0.89
2023-12-08T20:33:12.752Z,-0.89
2023-12-08T20:35:58.717Z,-0.89
2023-12-08T20:38:44.331Z,-0.88
2023-12-08T20:41:30.270Z,-0.88
2023-12-08T20:44:18.197Z,-0.88
2023-12-08T20:47:03.541Z,-0.88
2023-12-08T20:49:49.752Z,-0.88
2023-12-08T20:52:35.714Z,-0.87
2023-12-08T20:55:21.207Z,-0.86
2023-12-08T20:58:06.896Z,-0.84
2023-12-08T21:00:52.598Z,-0.85
2023-12-08T21:03:38.617Z,-0.84
2023-12-08T21:06:24.131Z,-0.85
2023-12-08T21:09:14.467Z,-0.85
2023-12-08T21:12:00.396Z,-0.86
2023-12-08T21:14:45.979Z,-0.84
2023-12-08T21:17:31.641Z,-0.85
2023-12-08T21:20:17.220Z,-0.85
2023-12-08T21:23:03.642Z,-0.85
2023-12-08T21:25:49.208Z,-0.84
2023-12-08T21:28:34.988Z,-0.83
2023-12-08T21:31:20.345Z,-0.81
2023-12-08T21:34:05.900Z,-0.78
2023-12-08T21:36:51.406Z,-0.77
2023-12-08T21:39:36.892Z,-0.77
2023-12-08T21:42:23.228Z,-0.77
2023-12-08T21:45:09.114Z,-0.75
2023-12-08T21:47:54.942Z,-0.74
2023-12-08T21:50:40.875Z,-0.73
2023-12-08T21:53:26.444Z,-0.72
2023-12-08T21:56:11.987Z,-0.71
2023-12-08T21:58:57.423Z,-0.72
2023-12-08T22:01:45.859Z,-0.71
2023-12-08T22:04:31.317Z,-0.70
2023-12-08T22:07:17.445Z,-0.67
2023-12-08T22:10:03.803Z,-0.66
2023-12-08T22:12:49.278Z,-0.65
2023-12-08T22:15:34.588Z,-0.63
2023-12-08T22:18:20.018Z,-0.62
2023-12-08T22:21:05.740Z,-0.61
2023-12-08T22:23:51.612Z,-0.59
2023-12-08T22:26:37.278Z,-0.58
2023-12-08T22:29:22.933Z,-0.55
2023-12-08T22:32:10.109Z,-0.55
2023-12-08T22:34:55.826Z,-0.56
2023-12-08T22:37:41.209Z,-0.55
2023-12-08T22:40:28.517Z,-0.55
2023-12-08T22:43:14.329Z,-0.54
2023-12-08T22:45:59.784Z,-0.54
2023-12-08T22:48:45.432Z,-0.52
2023-12-08T22:51:42.873Z,-0.50
2023-12-08T22:54:34.235Z,-0.49
2023-12-08T22:57:19.833Z,-0.47
2023-12-08T23:00:08.041Z,-0.46
2023-12-08T23:02:54.577Z,-0.45
2023-12-08T23:05:40.570Z,-0.45
2023-12-08T23:08:26.218Z,-0.46
2023-12-08T23:11:11.757Z,-0.44
2023-12-08T23:13:57.189Z,-0.42
2023-12-08T23:16:43.021Z,-0.43
2023-12-08T23:19:28.747Z,-0.43
2023-12-08T23:22:14.337Z,-0.42
2023-12-08T23:24:59.843Z,-0.41
2023-12-08T23:27:45.290Z,-0.42
2023-12-08T23:30:30.736Z,-0.42
2023-12-08T23:33:16.340Z,-0.42
2023-12-08T23:36:01.904Z,-0.41
2023-12-08T23:38:48.619Z,-0.40
2023-12-08T23:41:34.649Z,-0.40
2023-12-08T23:44:21.259Z,-0.40
2023-12-08T23:47:06.869Z,-0.41
2023-12-08T23:49:52.375Z,-0.41
2023-12-08T23:52:38.103Z,-0.40
2023-12-08T23:55:23.511Z,-0.39
2023-12-08T23:58:08.779Z,-0.39
